Armada, MI

5:49 PM EST on January 27, 2015 (GMT -0500)
Washington, MI | Change Station
CLOSE
Current Station
Personal Weather Station
Location: Washington, MI
Elevation: 846 ft
Nearby Weather Stations

Elev 846 ft 42.79 °N, 83.04 °W | Updated 3 seconds ago

Clear
Clear
20.9 °F
Feels Like 13 °F
N
5.9
Wind Variable Wind from NNE
Gusts 10.7 mph

Today
High -- | Low -- °F
--% Chance of Precip.
Yesterday
High -- | Low -- °F
Precip. -- in
7:51 AM 5:37 PM
First Quarter, 58% visible
Pressure 30.19 in
Visibility 12.0 miles
Clouds Clear
Windchill 13 °F
Dew Point 17 °F
Humidity 85%
Rainfall 0.00 in
Snow Depth Not available.
UV 0 out of 12
Pollen .10 out of 12
Air Quality Not available.
Flu Activity Not available.
METAR KMTC 272155Z 34014KT 12SM CLR M05/M11 A3013 RMK SLP221 T10481112

More Conditions Fewer Conditions

Pressure 30.19 in
Visibility 12.0 miles
Clouds Clear
Windchill 13 °F
Dew Point 17 °F
Humidity 85%
Rainfall 0.00 in
Snow Depth Not available.
UV 0 out of 12
Pollen .10 out of 12
Air Quality Not available.
Flu Activity Not available.
METAR KMTC 272155Z 34014KT 12SM CLR M05/M11 A3013 RMK SLP221 T10481112

More Conditions Fewer Conditions

10-Day Weather Forecast

Almanac

Astronomy

Jan. 27, 2015 Rise Set
Actual Time
Civil Twilight
Nautical Twilight
Astronomical Twilight
Moon
Length of Visible Light
Length of Day
Tomorrow will be .
, % of the Moon is Illuminated

Today's Extremes

State Highs State Lows

Community

WunderPhotos

Upload Photos

1,790,960 photos uploaded!

WunderBlogs® & News

Nearby

Air Quality

  Air Quality AQ Index Pollutant
Not available.

Snow Depth

Station Depth Elevation

Earthquake Activity

City Distance Mag. Time & Date
Minimum magnitude displayed is 2.5.

Coastal Water Temperatures

Place Temperature

Nearby Weather Stations